Terminal Aerodrome Forecast
Issued by NWS Louisville, KY

Home | Current Version | Previous Version | Text Only | Print | Product List | Glossary On
Versions: 1 2 3 4 5 6 7 8 9 10 11 12 13 14 15 16 17 18 19 20
000
FTUS43 KLMK 270500
TAFBWG
TAF
KBWG 270523Z 2706/2806 VRB03KT P6SM SCT060 BKN200
     FM271000 00000KT 3SM BR SCT060 BKN120
      TEMPO 2710/2712 1SM BR
     FM271200 25004KT P6SM VCSH SCT050
     FM271800 26005KT P6SM FEW030 SCT080=

USA.gov is the U.S. government's official web portal to all federal, state and local government web resources and services.